createdAt,value
2023-11-09T00:02:06.482Z,78.70
2023-11-09T00:04:40.959Z,78.57
2023-11-09T00:07:13.432Z,78.75
2023-11-09T00:09:47.563Z,78.49
2023-11-09T00:12:21.421Z,78.66
2023-11-09T00:14:56.808Z,78.99
2023-11-09T00:17:32.240Z,78.84
2023-11-09T00:20:07.997Z,79.06
2023-11-09T00:22:40.574Z,79.37
2023-11-09T00:25:14.247Z,79.08
2023-11-09T00:27:46.080Z,79.10
2023-11-09T00:30:18.976Z,78.84
2023-11-09T00:32:54.135Z,79.28
2023-11-09T00:35:25.978Z,79.39
2023-11-09T00:38:01.201Z,79.07
2023-11-09T00:40:33.465Z,79.31
2023-11-09T00:43:05.702Z,79.56
2023-11-09T00:45:40.101Z,79.72
2023-11-09T00:48:12.026Z,79.71
2023-11-09T00:50:44.633Z,79.53
2023-11-09T00:53:17.265Z,79.06
2023-11-09T00:55:51.846Z,78.73
2023-11-09T00:58:25.035Z,78.82
2023-11-09T01:00:57.112Z,79.14
2023-11-09T01:03:29.275Z,79.08
2023-11-09T01:06:06.750Z,79.62
2023-11-09T01:08:40.176Z,79.29
2023-11-09T01:11:13.650Z,79.38
2023-11-09T01:13:48.675Z,79.13
2023-11-09T01:16:23.653Z,79.07
2023-11-09T01:18:57.721Z,78.76
2023-11-09T01:21:32.844Z,78.66
2023-11-09T01:24:09.554Z,78.32
2023-11-09T01:26:42.523Z,78.83
2023-11-09T01:29:19.478Z,78.88
2023-11-09T01:31:56.357Z,79.30
2023-11-09T01:34:31.918Z,79.13
2023-11-09T01:37:05.471Z,79.34
2023-11-09T01:39:40.469Z,79.27
2023-11-09T01:42:18.543Z,79.33
2023-11-09T01:44:51.441Z,79.62
2023-11-09T01:47:29.288Z,79.18
2023-11-09T01:50:11.447Z,78.78
2023-11-09T01:52:44.929Z,78.70
2023-11-09T01:58:38.104Z,78.66
2023-11-09T02:01:23.124Z,78.20
2023-11-09T02:03:55.907Z,77.93
2023-11-09T02:06:28.142Z,77.68
2023-11-09T02:09:00.882Z,77.87
2023-11-09T02:11:32.368Z,78.03
2023-11-09T02:14:08.433Z,78.74
2023-11-09T02:16:39.987Z,78.52
2023-11-09T02:19:13.317Z,78.97
2023-11-09T02:21:47.371Z,78.72
2023-11-09T02:24:20.606Z,78.66
2023-11-09T02:26:52.442Z,78.90
2023-11-09T02:29:26.600Z,78.98
2023-11-09T02:31:58.922Z,78.84
2023-11-09T02:34:33.120Z,79.32
2023-11-09T02:37:05.702Z,79.39
2023-11-09T02:39:37.448Z,79.81
2023-11-09T02:42:12.526Z,79.75
2023-11-09T02:44:44.722Z,79.52
2023-11-09T02:47:16.649Z,79.05
2023-11-09T02:49:48.133Z,79.27
2023-11-09T02:52:24.385Z,79.55
2023-11-09T02:55:09.471Z,79.38
2023-11-09T02:57:39.485Z,79.30
2023-11-09T03:00:14.155Z,79.00
2023-11-09T03:02:45.823Z,78.50
2023-11-09T03:05:27.933Z,78.19
2023-11-09T03:07:59.512Z,78.80
2023-11-09T03:10:31.704Z,79.17
2023-11-09T03:13:06.092Z,79.52
2023-11-09T03:15:38.332Z,79.69
2023-11-09T03:18:12.746Z,79.57
2023-11-09T03:20:45.641Z,78.94
2023-11-09T03:23:18.321Z,79.14
2023-11-09T03:25:50.029Z,79.19
2023-11-09T03:28:22.473Z,78.82
2023-11-09T03:30:53.763Z,79.17
2023-11-09T03:33:25.457Z,78.96
2023-11-09T03:35:57.448Z,79.31
2023-11-09T03:38:29.655Z,79.83
2023-11-09T03:41:01.866Z,80.34
2023-11-09T03:43:34.544Z,80.21
2023-11-09T03:46:06.352Z,79.19
2023-11-09T03:48:37.994Z,79.15
2023-11-09T03:51:11.283Z,79.06
2023-11-09T03:53:43.311Z,78.57
2023-11-09T03:56:15.017Z,78.94
2023-11-09T03:58:49.280Z,79.17
2023-11-09T04:01:21.034Z,78.98
2023-11-09T04:03:53.181Z,78.61
2023-11-09T04:06:25.209Z,79.01
2023-11-09T04:08:57.506Z,79.11
2023-11-09T04:11:29.226Z,79.17
2023-11-09T04:14:01.110Z,79.34
2023-11-09T04:16:33.316Z,79.15
2023-11-09T04:19:05.075Z,79.71
2023-11-09T04:21:36.688Z,79.74
2023-11-09T04:24:10.379Z,79.09
2023-11-09T04:26:43.829Z,78.72
2023-11-09T04:29:16.946Z,78.65
2023-11-09T04:31:50.078Z,78.75
2023-11-09T04:34:22.607Z,78.96
2023-11-09T04:36:54.494Z,79.31
2023-11-09T04:39:31.755Z,78.92
2023-11-09T04:42:05.990Z,78.83
2023-11-09T04:44:38.552Z,79.12
2023-11-09T04:47:12.921Z,79.03
2023-11-09T04:49:48.562Z,78.79
2023-11-09T04:52:20.876Z,79.03
2023-11-09T04:54:58.972Z,79.29
2023-11-09T04:57:49.921Z,79.26
2023-11-09T05:00:39.092Z,79.03
2023-11-09T05:03:31.232Z,78.84
2023-11-09T05:06:27.271Z,79.14
2023-11-09T05:08:59.625Z,79.15
2023-11-09T05:11:31.772Z,79.17
2023-11-09T05:14:04.245Z,79.37
2023-11-09T05:16:38.781Z,79.41
2023-11-09T05:19:10.577Z,79.40
2023-11-09T05:21:42.737Z,79.50
2023-11-09T05:24:14.600Z,79.62
2023-11-09T05:26:47.606Z,79.33
2023-11-09T05:29:19.889Z,78.86
2023-11-09T05:31:52.766Z,78.78
2023-11-09T05:34:24.718Z,79.21
2023-11-09T05:36:59.283Z,79.01
2023-11-09T05:39:31.416Z,78.87
2023-11-09T05:42:04.023Z,79.54
2023-11-09T05:44:35.450Z,79.81
2023-11-09T05:47:07.807Z,79.47
2023-11-09T05:49:39.527Z,79.41
2023-11-09T05:52:12.191Z,78.68
2023-11-09T05:54:44.031Z,78.61
2023-11-09T05:57:15.790Z,79.36
2023-11-09T05:59:47.179Z,79.06
2023-11-09T06:02:18.775Z,79.01
2023-11-09T06:04:50.735Z,79.23
2023-11-09T06:07:23.060Z,78.87
2023-11-09T06:09:54.835Z,78.83
2023-11-09T06:12:29.435Z,79.20
2023-11-09T06:15:01.937Z,79.40
2023-11-09T06:17:33.948Z,78.88
2023-11-09T06:20:08.271Z,78.31
2023-11-09T06:22:40.442Z,78.65
2023-11-09T06:25:14.128Z,79.11
2023-11-09T06:27:45.606Z,79.69
2023-11-09T06:30:17.381Z,79.31
2023-11-09T06:32:49.996Z,78.68
2023-11-09T06:35:22.361Z,77.19
2023-11-09T06:37:54.251Z,76.05
2023-11-09T06:40:28.005Z,75.80
2023-11-09T06:42:59.851Z,76.03
2023-11-09T06:45:34.171Z,75.82
2023-11-09T06:48:05.952Z,75.29
2023-11-09T06:50:37.666Z,75.90
2023-11-09T06:53:09.962Z,76.48
2023-11-09T06:55:42.005Z,76.02
2023-11-09T06:58:13.609Z,75.49
2023-11-09T07:00:47.110Z,74.89
2023-11-09T07:03:19.603Z,74.36
2023-11-09T07:05:54.437Z,74.28
2023-11-09T07:08:30.083Z,74.03
2023-11-09T07:11:02.911Z,73.46
2023-11-09T07:13:36.016Z,73.17
2023-11-09T07:16:15.104Z,73.64
2023-11-09T07:18:47.580Z,73.36
2023-11-09T07:21:29.731Z,73.32
2023-11-09T07:24:08.174Z,73.33
2023-11-09T07:26:40.463Z,73.56
2023-11-09T07:29:15.062Z,73.38
2023-11-09T07:31:47.171Z,73.63
2023-11-09T07:34:23.505Z,73.89
2023-11-09T07:36:59.221Z,74.40
2023-11-09T07:39:47.416Z,73.97
2023-11-09T07:42:19.431Z,73.34
2023-11-09T07:44:52.019Z,72.49
2023-11-09T07:47:23.988Z,72.64
2023-11-09T07:49:55.952Z,72.92
2023-11-09T07:52:27.792Z,72.40
2023-11-09T07:54:59.755Z,71.75
2023-11-09T07:57:31.774Z,71.04
2023-11-09T08:00:06.327Z,70.80
2023-11-09T08:02:41.209Z,70.70
2023-11-09T08:05:15.970Z,70.52
2023-11-09T08:07:47.848Z,70.78
2023-11-09T08:10:19.797Z,71.12
2023-11-09T08:12:51.507Z,71.33
2023-11-09T08:15:23.951Z,71.57
2023-11-09T08:17:55.675Z,71.32
2023-11-09T08:20:32.436Z,71.11
2023-11-09T08:23:04.259Z,70.54
2023-11-09T08:25:36.024Z,70.60
2023-11-09T08:28:10.018Z,70.90
2023-11-09T08:30:45.448Z,70.71
2023-11-09T08:33:23.493Z,70.86
2023-11-09T08:35:55.987Z,70.53
2023-11-09T08:38:29.656Z,70.61
2023-11-09T08:41:02.380Z,70.26
2023-11-09T08:43:34.967Z,69.68
2023-11-09T08:46:07.000Z,69.57
2023-11-09T08:48:44.694Z,69.12
2023-11-09T08:51:16.605Z,68.93
2023-11-09T08:53:51.091Z,68.34
2023-11-09T08:56:25.773Z,68.20
2023-11-09T08:58:57.524Z,68.14
2023-11-09T09:01:32.817Z,68.07
2023-11-09T09:04:05.998Z,68.28
2023-11-09T09:06:38.923Z,67.94
2023-11-09T09:09:16.490Z,67.43
2023-11-09T09:11:48.332Z,67.39
2023-11-09T09:14:19.978Z,67.04
2023-11-09T09:16:51.853Z,67.30
2023-11-09T09:19:26.128Z,66.83
2023-11-09T09:21:58.184Z,67.15
2023-11-09T09:24:33.012Z,67.41
2023-11-09T09:27:16.488Z,67.15
2023-11-09T09:30:00.767Z,66.89
2023-11-09T09:32:47.949Z,66.29
2023-11-09T09:38:52.553Z,65.55
2023-11-09T09:41:35.517Z,65.49
2023-11-09T09:44:10.461Z,65.41
2023-11-09T09:46:48.740Z,65.44
2023-11-09T09:49:27.291Z,65.49
2023-11-09T09:52:06.177Z,65.61
2023-11-09T09:54:44.770Z,65.43
2023-11-09T09:57:17.255Z,65.81
2023-11-09T09:59:49.618Z,64.99
2023-11-09T10:02:21.798Z,64.33
2023-11-09T10:04:57.874Z,64.66
2023-11-09T10:07:29.434Z,65.17
2023-11-09T10:10:01.004Z,65.44
2023-11-09T10:12:32.772Z,65.28
2023-11-09T10:15:05.921Z,64.62
2023-11-09T10:17:37.524Z,64.96
2023-11-09T10:20:15.046Z,64.56
2023-11-09T10:22:48.314Z,64.22
2023-11-09T10:25:29.041Z,64.05
2023-11-09T10:28:41.379Z,64.59
2023-11-09T10:31:32.076Z,64.38
2023-11-09T10:34:06.522Z,64.08
2023-11-09T10:36:38.955Z,63.90
2023-11-09T10:39:19.603Z,63.93
2023-11-09T10:41:57.620Z,63.90
2023-11-09T10:44:33.137Z,63.85
2023-11-09T10:47:09.073Z,63.67
2023-11-09T10:49:46.255Z,64.14
2023-11-09T10:52:23.526Z,63.26
2023-11-09T10:54:57.327Z,63.40
2023-11-09T10:57:31.894Z,64.01
2023-11-09T11:00:02.915Z,63.74
2023-11-09T11:02:40.896Z,63.92
2023-11-09T11:05:15.563Z,63.31
2023-11-09T11:07:49.337Z,63.09
2023-11-09T11:10:22.037Z,62.44
2023-11-09T11:12:55.444Z,62.64
2023-11-09T11:15:40.989Z,62.48
2023-11-09T11:18:26.179Z,62.01
2023-11-09T11:21:23.041Z,61.54
2023-11-09T11:24:27.395Z,61.37
2023-11-09T11:27:18.798Z,61.51
2023-11-09T11:29:55.004Z,61.19
2023-11-09T11:32:35.331Z,60.88
2023-11-09T11:35:08.587Z,61.01
2023-11-09T11:37:41.667Z,60.69
2023-11-09T11:40:18.768Z,60.70
2023-11-09T11:43:01.781Z,60.55
2023-11-09T11:45:33.553Z,60.99
2023-11-09T11:48:06.656Z,60.71
2023-11-09T11:50:40.091Z,60.31
2023-11-09T11:53:26.691Z,60.29
2023-11-09T11:56:12.067Z,60.59
2023-11-09T11:58:54.150Z,60.28
2023-11-09T12:01:33.414Z,60.19
2023-11-09T12:04:08.309Z,60.26
2023-11-09T12:06:43.986Z,59.88
2023-11-09T12:09:17.090Z,59.18
2023-11-09T12:11:51.466Z,59.24
2023-11-09T12:14:30.460Z,59.37
2023-11-09T12:17:05.217Z,59.95
2023-11-09T12:19:47.057Z,60.20
2023-11-09T12:22:19.280Z,59.46
2023-11-09T12:25:02.012Z,59.60
2023-11-09T12:27:37.971Z,59.58
2023-11-09T12:30:13.553Z,59.59
2023-11-09T12:32:45.230Z,59.24
2023-11-09T12:35:20.253Z,58.79
2023-11-09T12:38:02.915Z,58.62
2023-11-09T12:40:34.457Z,58.55
2023-11-09T12:43:09.038Z,58.63
2023-11-09T12:45:43.072Z,58.56
2023-11-09T12:48:15.781Z,58.42
2023-11-09T12:50:48.532Z,58.83
2023-11-09T12:53:28.812Z,58.98
2023-11-09T12:56:00.426Z,59.17
2023-11-09T12:58:35.985Z,59.06
2023-11-09T13:01:07.997Z,59.33
2023-11-09T13:03:39.399Z,58.69
2023-11-09T13:06:14.281Z,58.79
2023-11-09T13:08:54.237Z,58.46
2023-11-09T13:11:45.219Z,58.44
2023-11-09T13:14:19.029Z,58.40
2023-11-09T13:16:52.137Z,58.60
2023-11-09T13:19:28.268Z,58.85
2023-11-09T13:21:59.896Z,58.73
2023-11-09T13:24:34.175Z,58.18
2023-11-09T13:27:13.527Z,58.24
2023-11-09T13:29:47.040Z,58.36
2023-11-09T13:32:28.029Z,58.53
2023-11-09T13:35:21.128Z,57.64
2023-11-09T13:37:59.521Z,57.22
2023-11-09T13:40:37.454Z,57.10
2023-11-09T13:43:12.434Z,57.35
2023-11-09T13:45:48.491Z,57.26
2023-11-09T13:48:25.434Z,57.14
2023-11-09T13:50:59.963Z,57.14
2023-11-09T13:53:47.995Z,57.04
2023-11-09T13:56:36.547Z,57.37
2023-11-09T13:59:14.312Z,57.26
2023-11-09T14:01:51.869Z,57.05
2023-11-09T14:04:24.787Z,57.48
2023-11-09T14:06:59.162Z,57.21
2023-11-09T14:09:35.959Z,57.43
2023-11-09T14:12:10.981Z,57.59
2023-11-09T14:14:46.682Z,57.24
2023-11-09T14:17:30.671Z,57.11
2023-11-09T14:20:11.018Z,57.32
2023-11-09T14:22:42.317Z,58.06
2023-11-09T14:25:19.112Z,58.17
2023-11-09T14:27:51.061Z,58.22
2023-11-09T14:30:30.095Z,57.99
2023-11-09T14:33:04.165Z,57.88
2023-11-09T14:35:37.967Z,58.08
2023-11-09T14:38:09.520Z,58.19
2023-11-09T14:40:48.568Z,58.25
2023-11-09T14:43:21.611Z,58.54
2023-11-09T14:45:54.015Z,58.84
2023-11-09T14:48:29.925Z,59.01
2023-11-09T14:51:01.585Z,59.39
2023-11-09T14:53:37.003Z,59.47
2023-11-09T14:56:11.983Z,59.50
2023-11-09T14:58:46.406Z,59.94
2023-11-09T15:01:23.715Z,59.84
2023-11-09T15:03:59.731Z,59.67
2023-11-09T15:06:33.357Z,59.86
2023-11-09T15:09:18.910Z,59.96
2023-11-09T15:12:06.334Z,60.54
2023-11-09T15:14:40.030Z,60.67
2023-11-09T15:17:11.482Z,61.10
2023-11-09T15:19:43.960Z,61.01
2023-11-09T15:22:18.131Z,60.91
2023-11-09T15:24:50.048Z,61.21
2023-11-09T15:27:21.587Z,61.39
2023-11-09T15:29:53.367Z,61.20
2023-11-09T15:32:28.953Z,61.33
2023-11-09T15:35:02.140Z,61.18
2023-11-09T15:37:33.674Z,61.32
2023-11-09T15:40:42.103Z,61.22
2023-11-09T15:43:03.919Z,61.04
2023-11-09T15:45:35.619Z,61.17
2023-11-09T15:48:09.523Z,61.50
2023-11-09T15:50:41.587Z,61.42
2023-11-09T15:53:13.221Z,61.16
2023-11-09T15:55:44.909Z,61.44
2023-11-09T15:58:17.860Z,61.55
2023-11-09T16:00:51.993Z,61.84
2023-11-09T16:03:26.054Z,61.89
2023-11-09T16:05:58.746Z,61.81
2023-11-09T16:08:31.984Z,61.33
2023-11-09T16:11:04.911Z,61.16
2023-11-09T16:13:36.968Z,61.06
2023-11-09T16:16:11.792Z,60.97
2023-11-09T16:18:43.563Z,61.55
2023-11-09T16:21:15.295Z,61.82
2023-11-09T16:23:47.141Z,62.13
2023-11-09T16:26:19.378Z,62.29
2023-11-09T16:28:51.618Z,62.20
2023-11-09T16:31:24.395Z,61.74
2023-11-09T16:33:56.017Z,61.75
2023-11-09T16:36:28.099Z,62.11
2023-11-09T16:39:00.383Z,62.08
2023-11-09T16:41:32.549Z,62.38
2023-11-09T16:44:04.205Z,62.67
2023-11-09T16:46:36.096Z,62.49
2023-11-09T16:49:12.625Z,62.88
2023-11-09T16:51:44.356Z,63.15
2023-11-09T16:54:16.959Z,63.09
2023-11-09T16:56:48.895Z,62.95
2023-11-09T16:59:20.476Z,63.04
2023-11-09T17:01:52.388Z,63.15
2023-11-09T17:04:24.423Z,63.22
2023-11-09T17:06:56.378Z,63.25
2023-11-09T17:09:29.221Z,62.81
2023-11-09T17:12:00.930Z,62.73
2023-11-09T17:14:33.107Z,62.69
2023-11-09T17:17:05.022Z,62.64
2023-11-09T17:19:36.703Z,62.40
2023-11-09T17:22:09.630Z,62.43
2023-11-09T17:24:41.552Z,62.56
2023-11-09T17:27:13.886Z,62.40
2023-11-09T17:29:45.820Z,62.33
2023-11-09T17:32:17.605Z,62.28
2023-11-09T17:34:50.685Z,62.19
2023-11-09T17:37:23.802Z,62.48
2023-11-09T17:39:55.857Z,62.26
2023-11-09T17:42:29.831Z,62.86
2023-11-09T17:45:02.777Z,62.56
2023-11-09T17:47:35.440Z,62.37
2023-11-09T17:50:10.396Z,62.39
2023-11-09T17:52:49.316Z,63.04
2023-11-09T17:55:22.940Z,62.86
2023-11-09T17:57:57.916Z,62.80
2023-11-09T18:00:30.048Z,62.43
2023-11-09T18:03:04.256Z,62.96
2023-11-09T18:05:38.716Z,63.32
2023-11-09T18:08:13.041Z,63.05
2023-11-09T18:10:52.447Z,62.75
2023-11-09T18:13:25.516Z,62.71
2023-11-09T18:16:02.225Z,62.74
2023-11-09T18:18:39.006Z,63.08
2023-11-09T18:21:14.515Z,63.28
2023-11-09T18:23:53.541Z,63.24
2023-11-09T18:26:26.661Z,63.16
2023-11-09T18:29:00.728Z,63.47
2023-11-09T18:31:36.232Z,63.67
2023-11-09T18:34:10.375Z,63.80
2023-11-09T18:36:43.083Z,64.05
2023-11-09T18:39:15.828Z,63.86
2023-11-09T18:42:04.314Z,63.60
2023-11-09T18:44:37.323Z,63.15
2023-11-09T18:47:12.812Z,63.01
2023-11-09T18:52:39.186Z,62.67
2023-11-09T18:55:21.346Z,62.83
2023-11-09T18:57:56.957Z,62.72
2023-11-09T19:00:35.918Z,63.38
2023-11-09T19:05:58.151Z,63.79
2023-11-09T19:08:36.426Z,63.72
2023-11-09T19:11:43.652Z,63.88
2023-11-09T19:14:28.133Z,63.53
2023-11-09T19:17:10.600Z,63.80
2023-11-09T19:19:47.710Z,63.40
2023-11-09T19:23:04.948Z,63.26
2023-11-09T19:25:47.923Z,63.38
2023-11-09T19:28:33.143Z,63.82
2023-11-09T19:31:21.763Z,64.09
2023-11-09T19:34:20.710Z,63.89
2023-11-09T19:37:07.299Z,64.06
2023-11-09T19:40:02.448Z,64.47
2023-11-09T19:43:25.284Z,64.58
2023-11-09T19:46:22.315Z,64.34
2023-11-09T19:53:27.938Z,63.77
2023-11-09T19:59:54.301Z,63.48
2023-11-09T20:03:18.517Z,63.80
2023-11-09T20:06:15.666Z,63.90
2023-11-09T20:08:52.352Z,63.93
2023-11-09T20:12:27.858Z,64.37
2023-11-09T20:15:04.249Z,64.17
2023-11-09T20:17:45.722Z,63.77
2023-11-09T20:21:17.742Z,63.57
2023-11-09T20:23:52.236Z,64.00
2023-11-09T20:26:33.845Z,64.05
2023-11-09T20:29:10.154Z,64.05
2023-11-09T20:31:47.977Z,64.44
2023-11-09T20:34:29.479Z,65.21
2023-11-09T20:37:05.325Z,65.17
2023-11-09T20:39:44.445Z,65.05
2023-11-09T20:42:21.629Z,65.23
2023-11-09T20:44:56.713Z,65.34
2023-11-09T20:47:49.188Z,64.85
2023-11-09T20:50:26.378Z,65.25
2023-11-09T20:53:03.490Z,65.05
2023-11-09T20:55:38.309Z,65.38
2023-11-09T20:58:12.699Z,65.31
2023-11-09T21:00:46.146Z,65.12
2023-11-09T21:03:18.804Z,65.09
2023-11-09T21:05:58.416Z,65.03
2023-11-09T21:08:30.181Z,64.31
2023-11-09T21:11:02.392Z,64.70
2023-11-09T21:13:38.101Z,64.88
2023-11-09T21:16:15.312Z,64.95
2023-11-09T21:18:48.330Z,64.68
2023-11-09T21:21:20.980Z,64.08
2023-11-09T21:28:07.863Z,64.39
2023-11-09T21:34:59.438Z,64.02
2023-11-09T21:38:31.549Z,63.72
2023-11-09T21:41:05.579Z,64.55
2023-11-09T21:43:38.472Z,64.68
2023-11-09T21:46:14.629Z,64.78
2023-11-09T21:48:49.244Z,65.19
2023-11-09T21:51:21.156Z,65.35
2023-11-09T21:53:52.966Z,65.03
2023-11-09T21:56:24.566Z,65.52
2023-11-09T21:58:56.457Z,65.11
2023-11-09T22:01:31.071Z,65.49
2023-11-09T22:04:04.123Z,65.94
2023-11-09T22:06:37.265Z,66.15
2023-11-09T22:09:13.425Z,65.68
2023-11-09T22:11:45.959Z,65.45
2023-11-09T22:14:18.148Z,65.46
2023-11-09T22:16:50.260Z,65.60
2023-11-09T22:19:22.408Z,65.19
2023-11-09T22:22:04.814Z,65.17
2023-11-09T22:24:37.351Z,64.71
2023-11-09T22:27:09.503Z,64.51
2023-11-09T22:29:45.119Z,64.98
2023-11-09T22:33:03.307Z,65.57
2023-11-09T22:39:09.456Z,64.92
2023-11-09T22:43:17.642Z,64.34
2023-11-09T22:49:04.686Z,64.17
2023-11-09T22:52:50.261Z,64.20
2023-11-09T22:55:46.335Z,63.83
2023-11-09T22:58:41.958Z,63.72
2023-11-09T23:01:28.783Z,63.75
2023-11-09T23:07:47.481Z,64.28
2023-11-09T23:10:33.978Z,64.22
2023-11-09T23:13:08.336Z,65.03
2023-11-09T23:15:40.447Z,64.73
2023-11-09T23:18:34.384Z,64.58
2023-11-09T23:21:09.207Z,64.93
2023-11-09T23:23:42.276Z,64.91
2023-11-09T23:26:20.083Z,64.84
2023-11-09T23:28:53.184Z,64.33
2023-11-09T23:31:34.538Z,64.38
2023-11-09T23:34:43.193Z,64.67
2023-11-09T23:37:15.181Z,64.73
2023-11-09T23:40:04.206Z,64.08
2023-11-09T23:42:43.820Z,63.67
2023-11-09T23:45:20.145Z,63.89
2023-11-09T23:47:52.405Z,64.12
2023-11-09T23:50:33.342Z,64.00
2023-11-09T23:53:13.108Z,64.29
2023-11-09T23:55:58.224Z,64.10
2023-11-09T23:58:41.494Z,63.88
